createdAt,value
2022-08-17T00:02:25.946Z,26.00
2022-08-17T00:04:54.161Z,26.00
2022-08-17T00:07:21.263Z,25.90
2022-08-17T00:09:48.098Z,25.90
2022-08-17T00:12:43.284Z,25.80
2022-08-17T00:15:01.573Z,25.80
2022-08-17T00:17:28.437Z,25.80
2022-08-17T00:19:55.084Z,25.70
2022-08-17T00:22:31.670Z,25.70
2022-08-17T00:25:02.830Z,25.70
2022-08-17T00:27:29.474Z,25.60
2022-08-17T00:29:56.279Z,25.60
2022-08-17T00:33:14.032Z,25.60
2022-08-17T00:35:12.829Z,25.50
2022-08-17T00:37:39.705Z,25.50
2022-08-17T00:40:09.942Z,25.40
2022-08-17T00:42:37.175Z,25.40
2022-08-17T00:45:06.058Z,25.40
2022-08-17T00:47:32.941Z,25.40
2022-08-17T00:49:59.592Z,25.30
2022-08-17T00:52:32.714Z,25.30
2022-08-17T00:54:59.796Z,25.20
2022-08-17T00:57:33.375Z,25.20
2022-08-17T01:00:06.393Z,25.20
2022-08-17T01:02:42.222Z,25.10
2022-08-17T01:05:19.845Z,25.10
2022-08-17T01:07:48.374Z,25.10
2022-08-17T01:11:00.253Z,25.10
2022-08-17T01:13:03.487Z,25.00
2022-08-17T01:15:31.839Z,25.00
2022-08-17T01:17:58.516Z,24.90
2022-08-17T01:20:25.202Z,24.90
2022-08-17T01:22:52.400Z,24.80
2022-08-17T01:25:20.279Z,24.80
2022-08-17T01:27:47.815Z,24.80
2022-08-17T01:30:57.188Z,24.80
2022-08-17T01:33:01.747Z,24.70
2022-08-17T01:35:28.498Z,24.70
2022-08-17T01:37:55.204Z,24.60
2022-08-17T01:40:25.645Z,24.60
2022-08-17T01:42:57.920Z,24.60
2022-08-17T01:45:28.195Z,24.60
2022-08-17T01:47:55.510Z,24.50
2022-08-17T01:50:31.219Z,24.50
2022-08-17T01:53:02.298Z,24.50
2022-08-17T01:55:53.721Z,24.40
2022-08-17T01:58:21.112Z,24.40
2022-08-17T02:01:00.085Z,24.30
2022-08-17T02:03:28.710Z,24.30
2022-08-17T02:05:55.659Z,24.30
2022-08-17T02:08:39.060Z,24.20
2022-08-17T02:11:14.594Z,24.20
2022-08-17T02:13:42.063Z,24.20
2022-08-17T02:16:08.752Z,24.20
2022-08-17T02:18:35.435Z,24.10
2022-08-17T02:21:02.533Z,24.10
2022-08-17T02:23:31.223Z,24.10
2022-08-17T02:25:59.791Z,24.00
2022-08-17T02:28:28.342Z,24.00
2022-08-17T02:31:01.817Z,23.90
2022-08-17T02:33:42.009Z,23.90
2022-08-17T02:36:11.878Z,23.90
2022-08-17T02:38:39.755Z,23.90
2022-08-17T02:41:07.081Z,23.90
2022-08-17T02:43:34.418Z,23.80
2022-08-17T02:46:01.197Z,23.80
2022-08-17T02:48:31.172Z,23.80
2022-08-17T02:50:58.948Z,23.70
2022-08-17T02:53:25.915Z,23.70
2022-08-17T02:55:52.951Z,23.70
2022-08-17T02:58:35.441Z,23.60
2022-08-17T03:01:06.998Z,23.60
2022-08-17T03:03:34.735Z,23.60
2022-08-17T03:06:01.731Z,23.60
2022-08-17T03:08:28.840Z,23.60
2022-08-17T03:10:56.288Z,23.50
2022-08-17T03:13:23.270Z,23.50
2022-08-17T03:15:50.719Z,23.40
2022-08-17T03:18:25.417Z,23.40
2022-08-17T03:21:00.670Z,23.40
2022-08-17T03:23:29.686Z,23.40
2022-08-17T03:25:58.024Z,23.40
2022-08-17T03:28:25.756Z,23.30
2022-08-17T03:30:52.460Z,23.30
2022-08-17T03:33:21.004Z,23.30
2022-08-17T03:35:48.502Z,23.30
2022-08-17T03:38:17.082Z,23.30
2022-08-17T03:40:58.410Z,23.20
2022-08-17T03:43:27.770Z,23.30
2022-08-17T03:46:33.971Z,23.20
2022-08-17T03:49:19.333Z,23.20
2022-08-17T03:52:15.343Z,23.10
2022-08-17T03:55:01.875Z,23.10
2022-08-17T03:57:29.138Z,23.10
2022-08-17T03:59:56.017Z,23.10
2022-08-17T04:02:28.965Z,23.10
2022-08-17T04:04:56.122Z,23.10
2022-08-17T04:07:25.091Z,23.00
2022-08-17T04:09:52.012Z,23.00
2022-08-17T04:12:21.813Z,23.00
2022-08-17T04:14:53.482Z,23.00
2022-08-17T04:17:22.448Z,23.00
2022-08-17T04:19:49.103Z,23.00
2022-08-17T04:22:33.179Z,22.90
2022-08-17T04:25:03.515Z,22.90
2022-08-17T04:27:30.203Z,22.90
2022-08-17T04:29:56.959Z,22.80
2022-08-17T04:32:58.377Z,22.80
2022-08-17T04:35:10.541Z,22.80
2022-08-17T04:37:38.048Z,22.80
2022-08-17T04:40:27.349Z,22.70
2022-08-17T04:43:13.933Z,22.70
2022-08-17T04:45:55.611Z,22.70
2022-08-17T04:48:36.467Z,22.70
2022-08-17T04:51:13.524Z,22.70
2022-08-17T04:53:42.382Z,22.60
2022-08-17T04:56:11.784Z,22.60
2022-08-17T04:58:44.739Z,22.60
2022-08-17T05:01:11.667Z,22.60
2022-08-17T05:03:38.656Z,22.50
2022-08-17T05:06:05.931Z,22.50
2022-08-17T05:08:32.663Z,22.60
2022-08-17T05:11:00.327Z,22.50
2022-08-17T05:13:29.631Z,22.50
2022-08-17T05:15:59.633Z,22.50
2022-08-17T05:18:27.527Z,22.40
2022-08-17T05:20:54.635Z,22.50
2022-08-17T05:23:23.165Z,22.50
2022-08-17T05:25:52.989Z,22.50
2022-08-17T05:28:24.048Z,22.40
2022-08-17T05:30:54.647Z,22.40
2022-08-17T05:33:23.893Z,22.40
2022-08-17T05:35:53.255Z,22.50
2022-08-17T05:38:22.618Z,22.40
2022-08-17T05:40:49.632Z,22.40
2022-08-17T05:43:22.292Z,22.40
2022-08-17T05:46:16.684Z,22.40
2022-08-17T05:48:46.192Z,22.30
2022-08-17T05:51:34.646Z,22.40
2022-08-17T05:54:15.755Z,22.30
2022-08-17T05:56:52.023Z,22.50
2022-08-17T05:59:53.199Z,22.40
2022-08-17T06:02:37.822Z,22.40
2022-08-17T06:05:04.440Z,22.40
2022-08-17T06:07:31.040Z,22.40
2022-08-17T06:10:12.212Z,22.40
2022-08-17T06:13:01.328Z,22.50
2022-08-17T06:15:40.230Z,22.50
2022-08-17T06:18:09.105Z,22.50
2022-08-17T06:20:51.979Z,22.50
2022-08-17T06:23:39.456Z,22.60
2022-08-17T06:26:18.112Z,22.60
2022-08-17T06:28:52.222Z,22.60
2022-08-17T06:31:28.081Z,22.70
2022-08-17T06:33:56.852Z,22.70
2022-08-17T06:36:40.329Z,22.70
2022-08-17T06:39:46.105Z,22.80
2022-08-17T06:42:54.687Z,22.80
2022-08-17T06:45:27.600Z,22.90
2022-08-17T06:48:05.854Z,23.00
2022-08-17T06:50:48.207Z,23.00
2022-08-17T06:53:20.429Z,23.10
2022-08-17T06:56:07.197Z,23.20
2022-08-17T06:58:35.646Z,23.30
2022-08-17T07:01:10.144Z,23.40
2022-08-17T07:03:54.576Z,23.40
2022-08-17T07:06:27.992Z,23.50
2022-08-17T07:09:03.412Z,23.60
2022-08-17T07:11:51.268Z,23.70
2022-08-17T07:14:41.005Z,23.80
2022-08-17T07:17:14.006Z,23.90
2022-08-17T07:19:44.113Z,24.00
2022-08-17T07:22:16.509Z,24.10
2022-08-17T07:24:57.275Z,24.30
2022-08-17T07:27:45.263Z,24.30
2022-08-17T07:30:11.964Z,24.50
2022-08-17T07:32:46.286Z,24.60
2022-08-17T07:35:18.372Z,24.70
2022-08-17T07:37:56.069Z,24.80
2022-08-17T07:40:27.140Z,24.90
2022-08-17T07:43:05.092Z,25.00
2022-08-17T07:45:51.323Z,25.20
2022-08-17T07:48:21.922Z,25.30
2022-08-17T07:50:50.450Z,25.40
2022-08-17T07:53:19.446Z,25.60
2022-08-17T07:55:46.400Z,25.70
2022-08-17T07:58:19.376Z,25.90
2022-08-17T08:00:46.688Z,25.90
2022-08-17T08:03:16.588Z,26.10
2022-08-17T08:05:54.809Z,26.20
2022-08-17T08:08:56.847Z,26.20
2022-08-17T08:11:35.571Z,26.30
2022-08-17T08:14:28.629Z,26.40
2022-08-17T08:17:07.286Z,26.50
2022-08-17T08:19:36.277Z,26.60
2022-08-17T08:22:06.800Z,26.60
2022-08-17T08:25:00.970Z,26.70
2022-08-17T08:27:49.792Z,26.80
2022-08-17T08:30:21.228Z,26.90
2022-08-17T08:33:00.207Z,26.90
2022-08-17T08:35:38.066Z,27.00
2022-08-17T08:38:34.565Z,27.10
2022-08-17T08:41:14.297Z,27.10
2022-08-17T08:44:06.017Z,27.20
2022-08-17T08:46:51.237Z,27.20
2022-08-17T08:50:02.110Z,27.30
2022-08-17T08:52:45.221Z,27.30
2022-08-17T08:55:23.020Z,27.40
2022-08-17T08:58:03.875Z,27.40
2022-08-17T09:00:36.975Z,27.50
2022-08-17T09:03:51.236Z,27.50
2022-08-17T09:06:45.191Z,27.50
2022-08-17T09:09:35.750Z,27.50
2022-08-17T09:12:25.625Z,27.50
2022-08-17T09:15:20.070Z,27.60
2022-08-17T09:18:08.570Z,27.60
2022-08-17T09:20:51.420Z,27.60
2022-08-17T09:23:32.537Z,28.20
2022-08-17T09:26:06.835Z,27.70
2022-08-17T09:28:37.117Z,27.70
2022-08-17T09:31:09.756Z,27.70
2022-08-17T09:33:42.484Z,27.70
2022-08-17T09:36:16.436Z,27.70
2022-08-17T09:39:13.127Z,27.70
2022-08-17T09:41:54.161Z,27.70
2022-08-17T09:44:51.776Z,27.70
2022-08-17T09:47:30.614Z,27.70
2022-08-17T09:51:04.140Z,27.70
2022-08-17T09:53:22.974Z,27.70
2022-08-17T09:56:28.665Z,27.70
2022-08-17T09:59:04.218Z,27.70
2022-08-17T10:01:40.242Z,27.70
2022-08-17T10:04:52.836Z,27.70
2022-08-17T10:07:46.558Z,27.70
2022-08-17T10:10:21.787Z,27.70
2022-08-17T10:13:05.603Z,27.70
2022-08-17T10:15:46.790Z,27.60
2022-08-17T10:18:31.949Z,27.70
2022-08-17T10:21:38.022Z,27.70
2022-08-17T10:25:02.011Z,27.70
2022-08-17T10:27:47.418Z,27.60
2022-08-17T10:30:17.391Z,27.60
2022-08-17T10:32:49.060Z,27.70
2022-08-17T10:35:42.946Z,27.60
2022-08-17T10:38:46.046Z,27.50
2022-08-17T10:41:50.985Z,27.50
2022-08-17T10:44:38.494Z,27.50
2022-08-17T10:47:07.628Z,27.50
2022-08-17T10:49:47.823Z,27.40
2022-08-17T10:52:21.742Z,27.40
2022-08-17T10:55:06.284Z,27.40
2022-08-17T10:57:39.518Z,27.30
2022-08-17T11:00:17.224Z,27.40
2022-08-17T11:02:50.431Z,27.30
2022-08-17T11:05:55.866Z,27.30
2022-08-17T11:09:00.753Z,27.30
2022-08-17T11:11:39.409Z,27.30
2022-08-17T11:14:23.810Z,27.30
2022-08-17T11:17:08.271Z,27.30
2022-08-17T11:19:52.756Z,27.20
2022-08-17T11:22:50.486Z,27.20
2022-08-17T11:25:19.575Z,27.20
2022-08-17T11:27:53.738Z,27.10
2022-08-17T11:30:44.523Z,27.10
2022-08-17T11:33:33.010Z,27.10
2022-08-17T11:36:33.613Z,27.10
2022-08-17T11:39:37.721Z,27.00
2022-08-17T11:42:27.957Z,27.00
2022-08-17T11:45:31.760Z,27.00
2022-08-17T11:48:44.382Z,26.90
2022-08-17T11:51:36.217Z,26.90
2022-08-17T11:54:33.626Z,26.90
2022-08-17T11:57:27.155Z,26.80
2022-08-17T11:59:58.952Z,26.80
2022-08-17T12:02:31.604Z,26.70
2022-08-17T12:05:17.274Z,26.70
2022-08-17T12:07:51.984Z,26.70
2022-08-17T12:10:21.931Z,26.70
2022-08-17T12:12:50.277Z,26.70
2022-08-17T12:15:21.209Z,26.70
2022-08-17T12:17:53.749Z,26.70
2022-08-17T12:20:30.451Z,26.60
2022-08-17T12:23:00.775Z,26.60
2022-08-17T12:25:44.366Z,26.60
2022-08-17T12:28:32.117Z,26.60
2022-08-17T12:31:20.822Z,26.50
2022-08-17T12:33:49.897Z,26.60
2022-08-17T12:36:25.277Z,26.50
2022-08-17T12:39:13.054Z,26.60
2022-08-17T12:41:44.357Z,26.60
2022-08-17T12:44:24.684Z,26.60
2022-08-17T12:47:21.920Z,26.60
2022-08-17T12:49:54.304Z,26.60
2022-08-17T12:52:26.903Z,26.60
2022-08-17T12:55:00.618Z,26.60
2022-08-17T12:57:45.462Z,26.60
2022-08-17T13:00:17.813Z,26.60
2022-08-17T13:02:51.074Z,26.60
2022-08-17T13:05:25.169Z,26.60
2022-08-17T13:07:53.316Z,26.60
2022-08-17T13:10:30.045Z,26.60
2022-08-17T13:13:03.714Z,26.60
2022-08-17T13:15:36.937Z,26.70
2022-08-17T13:18:27.437Z,26.70
2022-08-17T13:20:55.087Z,26.70
2022-08-17T13:23:21.843Z,26.70
2022-08-17T13:26:06.458Z,26.70
2022-08-17T13:28:35.955Z,26.70
2022-08-17T13:31:27.846Z,26.80
2022-08-17T13:34:18.486Z,26.80
2022-08-17T13:36:46.372Z,26.90
2022-08-17T13:39:25.078Z,27.00
2022-08-17T13:41:55.363Z,27.40
2022-08-17T13:44:40.372Z,27.30
2022-08-17T13:47:33.231Z,27.30
2022-08-17T13:49:59.935Z,27.40
2022-08-17T13:52:40.923Z,27.70
2022-08-17T13:55:20.152Z,27.70
2022-08-17T13:57:49.263Z,27.80
2022-08-17T14:00:36.383Z,27.90
2022-08-17T14:03:04.596Z,28.10
2022-08-17T14:05:32.042Z,28.10
2022-08-17T14:08:02.018Z,28.40
2022-08-17T14:10:35.775Z,28.40
2022-08-17T14:13:02.748Z,28.90
2022-08-17T14:15:56.153Z,28.70
2022-08-17T14:18:18.922Z,28.90
2022-08-17T14:21:05.739Z,29.40
2022-08-17T14:23:32.928Z,29.20
2022-08-17T14:25:59.809Z,29.20
2022-08-17T14:28:27.843Z,29.30
2022-08-17T14:30:55.325Z,30.20
2022-08-17T14:33:22.565Z,29.60
2022-08-17T14:35:53.558Z,29.60
2022-08-17T14:38:20.910Z,29.70
2022-08-17T14:40:48.199Z,29.80
2022-08-17T14:43:15.918Z,29.80
2022-08-17T14:45:43.207Z,29.90
2022-08-17T14:48:10.064Z,30.10
2022-08-17T14:50:40.594Z,30.10
2022-08-17T14:53:09.350Z,30.20
2022-08-17T14:55:39.829Z,30.40
2022-08-17T14:58:07.433Z,30.40
2022-08-17T15:00:34.538Z,30.30
2022-08-17T15:03:01.985Z,30.50
2022-08-17T15:05:33.616Z,30.60
2022-08-17T15:08:01.397Z,30.60
2022-08-17T15:10:29.341Z,30.60
2022-08-17T15:12:56.585Z,30.70
2022-08-17T15:15:23.821Z,30.70
2022-08-17T15:17:51.369Z,30.80
2022-08-17T15:20:20.789Z,30.80
2022-08-17T15:22:55.343Z,30.90
2022-08-17T15:25:22.914Z,30.80
2022-08-17T15:27:49.705Z,30.90
2022-08-17T15:30:16.862Z,30.90
2022-08-17T15:32:45.855Z,30.90
2022-08-17T15:35:18.929Z,30.90
2022-08-17T15:37:53.859Z,30.90
2022-08-17T15:40:20.622Z,30.90
2022-08-17T15:42:47.299Z,30.90
2022-08-17T15:45:14.600Z,31.00
2022-08-17T15:47:42.559Z,31.00
2022-08-17T15:50:10.264Z,31.00
2022-08-17T15:52:40.176Z,31.00
2022-08-17T15:55:10.683Z,31.00
2022-08-17T15:57:37.494Z,31.00
2022-08-17T16:00:06.160Z,31.00
2022-08-17T16:03:16.068Z,31.00
2022-08-17T16:05:24.861Z,31.00
2022-08-17T16:07:52.581Z,31.00
2022-08-17T16:10:19.885Z,31.00
2022-08-17T16:12:49.576Z,31.00
2022-08-17T16:15:17.290Z,31.00
2022-08-17T16:17:43.960Z,31.00
2022-08-17T16:20:20.526Z,30.90
2022-08-17T16:22:49.234Z,31.00
2022-08-17T16:25:47.153Z,31.20
2022-08-17T16:28:16.069Z,30.90
2022-08-17T16:30:42.779Z,30.90
2022-08-17T16:33:11.445Z,30.90
2022-08-17T16:35:38.342Z,30.90
2022-08-17T16:38:05.121Z,30.90
2022-08-17T16:40:35.750Z,30.90
2022-08-17T16:43:03.349Z,30.90
2022-08-17T16:45:36.399Z,30.80
2022-08-17T16:48:03.628Z,30.80
2022-08-17T16:50:31.837Z,30.80
2022-08-17T16:53:10.737Z,30.80
2022-08-17T16:55:37.876Z,30.80
2022-08-17T16:58:05.318Z,30.80
2022-08-17T17:00:33.420Z,30.70
2022-08-17T17:03:20.252Z,30.80
2022-08-17T17:05:59.258Z,30.70
2022-08-17T17:08:28.446Z,30.70
2022-08-17T17:10:56.109Z,30.70
2022-08-17T17:13:44.459Z,30.70
2022-08-17T17:16:31.945Z,30.60
2022-08-17T17:19:15.245Z,30.60
2022-08-17T17:21:49.437Z,30.60
2022-08-17T17:24:28.908Z,30.50
2022-08-17T17:27:42.511Z,30.60
2022-08-17T17:30:38.161Z,30.50
2022-08-17T17:33:17.346Z,30.40
2022-08-17T17:36:04.699Z,30.40
2022-08-17T17:38:43.575Z,30.40
2022-08-17T17:41:26.055Z,30.30
2022-08-17T17:44:01.861Z,30.20
2022-08-17T17:46:41.960Z,30.50
2022-08-17T17:49:14.227Z,30.30
2022-08-17T17:52:08.094Z,30.10
2022-08-17T17:54:58.937Z,30.10
2022-08-17T17:57:31.281Z,30.10
2022-08-17T18:00:21.960Z,30.10
2022-08-17T18:03:38.649Z,30.10
2022-08-17T18:06:45.555Z,30.00
2022-08-17T18:09:27.195Z,30.00
2022-08-17T18:12:42.755Z,29.90
2022-08-17T18:15:37.365Z,29.90
2022-08-17T18:18:37.462Z,29.80
2022-08-17T18:21:07.331Z,29.80
2022-08-17T18:23:34.585Z,29.70
2022-08-17T18:26:02.089Z,29.60
2022-08-17T18:28:35.775Z,29.70
2022-08-17T18:31:21.704Z,29.60
2022-08-17T18:33:54.635Z,29.60
2022-08-17T18:36:36.233Z,29.50
2022-08-17T18:39:16.365Z,29.40
2022-08-17T18:41:52.261Z,29.40
2022-08-17T18:44:32.619Z,29.30
2022-08-17T18:49:46.880Z,29.20
2022-08-17T18:52:30.382Z,29.30
2022-08-17T18:55:16.497Z,29.10
2022-08-17T18:57:59.945Z,29.30
2022-08-17T19:00:29.479Z,29.10
2022-08-17T19:03:01.214Z,29.00
2022-08-17T19:05:40.088Z,28.90
2022-08-17T19:08:28.333Z,28.90
2022-08-17T19:11:04.130Z,28.90
2022-08-17T19:13:53.608Z,28.80
2022-08-17T19:16:27.228Z,28.70
2022-08-17T19:19:09.912Z,28.70
2022-08-17T19:21:45.651Z,28.70
2022-08-17T19:24:19.616Z,28.60
2022-08-17T19:26:56.553Z,28.60
2022-08-17T19:29:56.985Z,28.50
2022-08-17T19:32:36.714Z,28.50
2022-08-17T19:35:05.679Z,28.40
2022-08-17T19:37:51.089Z,28.40
2022-08-17T19:40:51.182Z,28.40
2022-08-17T19:43:36.529Z,28.30
2022-08-17T19:46:27.615Z,28.30
2022-08-17T19:49:19.783Z,28.30
2022-08-17T19:51:50.279Z,28.20
2022-08-17T19:54:51.502Z,28.20
2022-08-17T19:57:41.527Z,28.10
2022-08-17T20:00:12.885Z,28.10
2022-08-17T20:03:16.436Z,28.10
2022-08-17T20:06:11.928Z,28.00
2022-08-17T20:08:40.499Z,28.00
2022-08-17T20:11:11.473Z,28.00
2022-08-17T20:13:52.442Z,27.90
2022-08-17T20:16:19.633Z,27.90
2022-08-17T20:19:23.497Z,27.90
2022-08-17T20:22:10.649Z,27.80
2022-08-17T20:24:46.636Z,27.80
2022-08-17T20:27:20.441Z,27.70
2022-08-17T20:33:03.852Z,27.70
2022-08-17T20:35:33.652Z,27.50
2022-08-17T20:41:01.011Z,27.60
2022-08-17T20:43:33.564Z,27.50
2022-08-17T20:46:28.233Z,27.50
2022-08-17T20:48:59.250Z,27.40
2022-08-17T20:51:31.828Z,27.40
2022-08-17T20:54:27.010Z,27.30
2022-08-17T20:56:57.196Z,27.30
2022-08-17T20:59:25.413Z,27.30
2022-08-17T21:02:18.829Z,27.20
2022-08-17T21:04:54.416Z,27.20
2022-08-17T21:07:43.252Z,27.20
2022-08-17T21:10:23.826Z,27.20
2022-08-17T21:12:56.304Z,27.10
2022-08-17T21:16:00.183Z,27.10
2022-08-17T21:18:59.290Z,27.00
2022-08-17T21:21:37.583Z,27.00
2022-08-17T21:24:30.438Z,27.00
2022-08-17T21:27:00.390Z,27.00
2022-08-17T21:29:31.546Z,26.90
2022-08-17T21:31:59.351Z,27.00
2022-08-17T21:35:05.708Z,26.90
2022-08-17T21:37:45.164Z,26.90
2022-08-17T21:40:18.423Z,26.80
2022-08-17T21:42:51.158Z,26.80
2022-08-17T21:45:30.195Z,26.80
2022-08-17T21:48:19.576Z,26.80
2022-08-17T21:51:00.956Z,26.70
2022-08-17T21:53:39.119Z,26.80
2022-08-17T21:56:07.300Z,26.80
2022-08-17T21:58:40.308Z,26.70
2022-08-17T22:01:13.352Z,26.70
2022-08-17T22:03:47.243Z,26.60
2022-08-17T22:06:24.527Z,26.60
2022-08-17T22:09:03.729Z,26.70
2022-08-17T22:11:31.493Z,26.60
2022-08-17T22:14:05.340Z,26.60
2022-08-17T22:16:32.870Z,26.50
2022-08-17T22:18:59.700Z,26.50
2022-08-17T22:21:26.497Z,26.50
2022-08-17T22:24:07.753Z,26.50
2022-08-17T22:27:01.084Z,26.50
2022-08-17T22:29:57.167Z,26.50
2022-08-17T22:32:31.994Z,26.40
2022-08-17T22:35:28.411Z,26.40
2022-08-17T22:37:56.544Z,26.40
2022-08-17T22:40:34.402Z,26.40
2022-08-17T22:43:03.604Z,26.30
2022-08-17T22:45:31.225Z,26.30
2022-08-17T22:47:59.067Z,26.30
2022-08-17T22:50:29.400Z,26.30
2022-08-17T22:53:41.899Z,26.20
2022-08-17T22:56:35.323Z,26.20
2022-08-17T22:59:22.537Z,26.20
2022-08-17T23:02:13.091Z,26.20
2022-08-17T23:04:43.257Z,26.10
2022-08-17T23:07:10.138Z,26.10
2022-08-17T23:09:37.431Z,26.10
2022-08-17T23:12:08.049Z,26.10
2022-08-17T23:14:39.273Z,25.50
2022-08-17T23:17:06.531Z,26.00
2022-08-17T23:19:33.539Z,26.00
2022-08-17T23:22:02.409Z,25.90
2022-08-17T23:24:31.821Z,25.90
2022-08-17T23:26:58.975Z,25.90
2022-08-17T23:29:28.831Z,25.80
2022-08-17T23:31:57.951Z,25.80
2022-08-17T23:34:25.580Z,25.80
2022-08-17T23:36:52.943Z,25.80
2022-08-17T23:39:24.411Z,25.70
2022-08-17T23:41:54.078Z,25.70
2022-08-17T23:44:23.455Z,25.70
2022-08-17T23:46:51.594Z,25.70
2022-08-17T23:49:19.124Z,25.70
2022-08-17T23:51:46.619Z,25.60
2022-08-17T23:54:34.850Z,25.60
2022-08-17T23:57:02.532Z,25.60
2022-08-17T23:59:29.273Z,25.60
